sensor_id;sensor_type;location;lat;lon;timestamp;P1;durP1;ratioP1;P2;durP2;ratioP2
30515;SDS011;17297;54.022;10.760;2023-03-21T00:01:51;13.90;;;10.30;;
30515;SDS011;17297;54.022;10.760;2023-03-21T00:04:17;13.43;;;9.70;;
30515;SDS011;17297;54.022;10.760;2023-03-21T00:06:43;13.15;;;10.55;;
30515;SDS011;17297;54.022;10.760;2023-03-21T00:09:08;12.38;;;9.60;;
30515;SDS011;17297;54.022;10.760;2023-03-21T00:11:33;15.63;;;10.93;;
30515;SDS011;17297;54.022;10.760;2023-03-21T00:13:59;15.57;;;10.98;;
30515;SDS011;17297;54.022;10.760;2023-03-21T00:16:26;15.70;;;10.98;;
30515;SDS011;17297;54.022;10.760;2023-03-21T00:18:54;13.32;;;9.30;;
30515;SDS011;17297;54.022;10.760;2023-03-21T00:21:21;14.45;;;10.68;;
30515;SDS011;17297;54.022;10.760;2023-03-21T00:23:56;12.43;;;9.55;;
30515;SDS011;17297;54.022;10.760;2023-03-21T00:26:23;12.88;;;10.23;;
30515;SDS011;17297;54.022;10.760;2023-03-21T00:28:49;11.65;;;9.50;;
30515;SDS011;17297;54.022;10.760;2023-03-21T00:31:15;12.55;;;9.45;;
30515;SDS011;17297;54.022;10.760;2023-03-21T00:33:40;12.50;;;9.30;;
30515;SDS011;17297;54.022;10.760;2023-03-21T00:36:07;12.38;;;9.23;;
30515;SDS011;17297;54.022;10.760;2023-03-21T00:38:33;13.10;;;9.38;;
30515;SDS011;17297;54.022;10.760;2023-03-21T00:41:02;13.75;;;8.98;;
30515;SDS011;17297;54.022;10.760;2023-03-21T00:43:28;12.68;;;9.35;;
30515;SDS011;17297;54.022;10.760;2023-03-21T00:45:54;13.05;;;9.55;;
30515;SDS011;17297;54.022;10.760;2023-03-21T00:48:21;10.88;;;9.13;;
30515;SDS011;17297;54.022;10.760;2023-03-21T00:50:46;14.30;;;9.43;;
30515;SDS011;17297;54.022;10.760;2023-03-21T00:53:13;11.70;;;9.52;;
30515;SDS011;17297;54.022;10.760;2023-03-21T00:55:39;13.25;;;9.10;;
30515;SDS011;17297;54.022;10.760;2023-03-21T00:58:05;13.85;;;10.07;;
30515;SDS011;17297;54.022;10.760;2023-03-21T01:00:31;12.13;;;9.48;;
30515;SDS011;17297;54.022;10.760;2023-03-21T01:02:57;11.15;;;9.20;;
30515;SDS011;17297;54.022;10.760;2023-03-21T01:05:29;11.40;;;8.82;;
30515;SDS011;17297;54.022;10.760;2023-03-21T01:08:16;12.35;;;8.80;;
30515;SDS011;17297;54.022;10.760;2023-03-21T01:10:44;11.57;;;9.02;;
30515;SDS011;17297;54.022;10.760;2023-03-21T01:13:11;10.18;;;8.82;;
30515;SDS011;17297;54.022;10.760;2023-03-21T01:15:50;9.80;;;8.30;;
30515;SDS011;17297;54.022;10.760;2023-03-21T01:18:17;11.25;;;9.27;;
30515;SDS011;17297;54.022;10.760;2023-03-21T01:20:44;13.43;;;9.90;;
30515;SDS011;17297;54.022;10.760;2023-03-21T01:23:10;10.90;;;9.02;;
30515;SDS011;17297;54.022;10.760;2023-03-21T01:25:37;10.00;;;8.60;;
30515;SDS011;17297;54.022;10.760;2023-03-21T01:28:03;11.82;;;8.70;;
30515;SDS011;17297;54.022;10.760;2023-03-21T01:30:29;11.20;;;8.98;;
30515;SDS011;17297;54.022;10.760;2023-03-21T01:32:54;12.30;;;8.05;;
30515;SDS011;17297;54.022;10.760;2023-03-21T01:35:20;10.35;;;8.20;;
30515;SDS011;17297;54.022;10.760;2023-03-21T01:37:46;10.18;;;7.97;;
30515;SDS011;17297;54.022;10.760;2023-03-21T01:40:17;12.05;;;7.82;;
30515;SDS011;17297;54.022;10.760;2023-03-21T01:42:48;10.73;;;8.45;;
30515;SDS011;17297;54.022;10.760;2023-03-21T01:48:22;10.77;;;9.02;;
30515;SDS011;17297;54.022;10.760;2023-03-21T01:50:56;11.52;;;8.90;;
30515;SDS011;17297;54.022;10.760;2023-03-21T01:53:33;11.23;;;8.52;;
30515;SDS011;17297;54.022;10.760;2023-03-21T01:56:05;10.68;;;9.10;;
30515;SDS011;17297;54.022;10.760;2023-03-21T01:58:47;11.68;;;8.52;;
30515;SDS011;17297;54.022;10.760;2023-03-21T02:01:39;12.07;;;8.07;;
30515;SDS011;17297;54.022;10.760;2023-03-21T02:04:07;12.35;;;8.55;;
30515;SDS011;17297;54.022;10.760;2023-03-21T02:07:08;14.70;;;9.98;;
30515;SDS011;17297;54.022;10.760;2023-03-21T02:09:46;14.00;;;9.30;;
30515;SDS011;17297;54.022;10.760;2023-03-21T02:12:17;10.50;;;7.90;;
30515;SDS011;17297;54.022;10.760;2023-03-21T02:14:44;12.93;;;9.65;;
30515;SDS011;17297;54.022;10.760;2023-03-21T02:17:53;13.02;;;9.32;;
30515;SDS011;17297;54.022;10.760;2023-03-21T02:29:48;17.55;;;10.65;;
30515;SDS011;17297;54.022;10.760;2023-03-21T02:43:38;13.27;;;9.30;;
30515;SDS011;17297;54.022;10.760;2023-03-21T02:46:35;14.30;;;10.20;;
30515;SDS011;17297;54.022;10.760;2023-03-21T02:49:11;16.73;;;10.73;;
30515;SDS011;17297;54.022;10.760;2023-03-21T02:51:41;16.27;;;11.45;;
30515;SDS011;17297;54.022;10.760;2023-03-21T02:54:14;19.35;;;13.10;;
30515;SDS011;17297;54.022;10.760;2023-03-21T02:56:43;15.50;;;11.05;;
30515;SDS011;17297;54.022;10.760;2023-03-21T02:59:10;16.38;;;10.95;;
30515;SDS011;17297;54.022;10.760;2023-03-21T03:01:37;15.88;;;11.45;;
30515;SDS011;17297;54.022;10.760;2023-03-21T03:04:02;16.02;;;11.50;;
30515;SDS011;17297;54.022;10.760;2023-03-21T03:06:31;16.35;;;11.88;;
30515;SDS011;17297;54.022;10.760;2023-03-21T03:09:19;16.23;;;10.73;;
30515;SDS011;17297;54.022;10.760;2023-03-21T03:15:23;16.83;;;10.23;;
30515;SDS011;17297;54.022;10.760;2023-03-21T03:18:00;18.70;;;10.77;;
30515;SDS011;17297;54.022;10.760;2023-03-21T03:20:42;17.05;;;10.77;;
30515;SDS011;17297;54.022;10.760;2023-03-21T03:23:23;16.35;;;11.57;;
30515;SDS011;17297;54.022;10.760;2023-03-21T03:25:53;17.25;;;11.85;;
30515;SDS011;17297;54.022;10.760;2023-03-21T03:30:55;13.95;;;9.38;;
30515;SDS011;17297;54.022;10.760;2023-03-21T03:33:26;14.90;;;9.93;;
30515;SDS011;17297;54.022;10.760;2023-03-21T03:35:54;15.88;;;11.15;;
30515;SDS011;17297;54.022;10.760;2023-03-21T03:38:23;19.63;;;11.63;;
30515;SDS011;17297;54.022;10.760;2023-03-21T03:40:53;19.05;;;12.20;;
30515;SDS011;17297;54.022;10.760;2023-03-21T03:43:34;17.15;;;11.52;;
30515;SDS011;17297;54.022;10.760;2023-03-21T03:46:09;16.75;;;10.82;;
30515;SDS011;17297;54.022;10.760;2023-03-21T03:48:46;18.40;;;11.63;;
30515;SDS011;17297;54.022;10.760;2023-03-21T03:51:20;13.73;;;9.57;;
30515;SDS011;17297;54.022;10.760;2023-03-21T03:54:05;16.75;;;10.70;;
30515;SDS011;17297;54.022;10.760;2023-03-21T03:56:36;15.07;;;10.05;;
30515;SDS011;17297;54.022;10.760;2023-03-21T03:59:03;16.83;;;10.45;;
30515;SDS011;17297;54.022;10.760;2023-03-21T04:01:50;16.70;;;11.23;;
30515;SDS011;17297;54.022;10.760;2023-03-21T04:04:16;15.95;;;11.02;;
30515;SDS011;17297;54.022;10.760;2023-03-21T04:06:42;16.55;;;10.45;;
30515;SDS011;17297;54.022;10.760;2023-03-21T04:09:19;14.85;;;10.38;;
30515;SDS011;17297;54.022;10.760;2023-03-21T04:11:44;16.45;;;10.35;;
30515;SDS011;17297;54.022;10.760;2023-03-21T04:14:09;16.63;;;10.43;;
30515;SDS011;17297;54.022;10.760;2023-03-21T04:16:35;14.35;;;10.70;;
30515;SDS011;17297;54.022;10.760;2023-03-21T04:19:01;12.45;;;9.25;;
30515;SDS011;17297;54.022;10.760;2023-03-21T04:21:28;12.93;;;8.52;;
30515;SDS011;17297;54.022;10.760;2023-03-21T04:23:54;13.93;;;9.93;;
30515;SDS011;17297;54.022;10.760;2023-03-21T04:26:20;16.23;;;10.00;;
30515;SDS011;17297;54.022;10.760;2023-03-21T04:29:06;15.23;;;9.50;;
30515;SDS011;17297;54.022;10.760;2023-03-21T04:31:52;13.77;;;9.10;;
30515;SDS011;17297;54.022;10.760;2023-03-21T04:34:17;15.65;;;10.35;;
30515;SDS011;17297;54.022;10.760;2023-03-21T04:36:49;14.43;;;9.48;;
30515;SDS011;17297;54.022;10.760;2023-03-21T04:39:15;14.60;;;9.93;;
30515;SDS011;17297;54.022;10.760;2023-03-21T04:41:44;14.25;;;8.82;;
30515;SDS011;17297;54.022;10.760;2023-03-21T04:44:11;15.65;;;9.95;;
30515;SDS011;17297;54.022;10.760;2023-03-21T04:46:38;16.38;;;11.65;;
30515;SDS011;17297;54.022;10.760;2023-03-21T04:49:05;17.17;;;10.98;;
30515;SDS011;17297;54.022;10.760;2023-03-21T04:51:34;17.27;;;10.85;;
30515;SDS011;17297;54.022;10.760;2023-03-21T04:54:00;15.55;;;10.18;;
30515;SDS011;17297;54.022;10.760;2023-03-21T04:56:26;14.25;;;9.63;;
30515;SDS011;17297;54.022;10.760;2023-03-21T04:59:04;15.85;;;9.98;;
30515;SDS011;17297;54.022;10.760;2023-03-21T05:01:32;14.52;;;9.60;;
30515;SDS011;17297;54.022;10.760;2023-03-21T05:03:58;14.07;;;9.15;;
30515;SDS011;17297;54.022;10.760;2023-03-21T05:06:25;14.88;;;10.18;;
30515;SDS011;17297;54.022;10.760;2023-03-21T05:08:53;14.98;;;11.15;;
30515;SDS011;17297;54.022;10.760;2023-03-21T05:11:25;14.32;;;9.82;;
30515;SDS011;17297;54.022;10.760;2023-03-21T05:13:51;16.40;;;10.73;;
30515;SDS011;17297;54.022;10.760;2023-03-21T05:16:17;14.80;;;9.77;;
30515;SDS011;17297;54.022;10.760;2023-03-21T05:18:43;16.80;;;11.52;;
30515;SDS011;17297;54.022;10.760;2023-03-21T05:21:15;15.00;;;9.88;;
30515;SDS011;17297;54.022;10.760;2023-03-21T05:23:43;13.88;;;9.63;;
30515;SDS011;17297;54.022;10.760;2023-03-21T05:26:09;15.27;;;10.57;;
30515;SDS011;17297;54.022;10.760;2023-03-21T05:28:41;17.58;;;10.77;;
30515;SDS011;17297;54.022;10.760;2023-03-21T05:31:07;15.55;;;10.10;;
30515;SDS011;17297;54.022;10.760;2023-03-21T05:33:33;17.92;;;10.93;;
30515;SDS011;17297;54.022;10.760;2023-03-21T05:35:58;15.68;;;10.35;;
30515;SDS011;17297;54.022;10.760;2023-03-21T05:38:28;16.27;;;10.80;;
30515;SDS011;17297;54.022;10.760;2023-03-21T05:40:53;13.95;;;9.00;;
30515;SDS011;17297;54.022;10.760;2023-03-21T05:43:19;15.68;;;10.07;;
30515;SDS011;17297;54.022;10.760;2023-03-21T05:45:45;15.30;;;9.40;;
30515;SDS011;17297;54.022;10.760;2023-03-21T05:48:13;17.40;;;10.70;;
30515;SDS011;17297;54.022;10.760;2023-03-21T05:50:57;18.58;;;11.82;;
30515;SDS011;17297;54.022;10.760;2023-03-21T05:53:22;15.50;;;10.40;;
30515;SDS011;17297;54.022;10.760;2023-03-21T05:55:48;17.08;;;11.95;;
30515;SDS011;17297;54.022;10.760;2023-03-21T05:58:28;17.85;;;10.73;;
30515;SDS011;17297;54.022;10.760;2023-03-21T06:00:54;16.60;;;9.82;;
30515;SDS011;17297;54.022;10.760;2023-03-21T06:03:26;14.27;;;9.77;;
30515;SDS011;17297;54.022;10.760;2023-03-21T06:06:09;15.00;;;9.75;;
30515;SDS011;17297;54.022;10.760;2023-03-21T06:08:39;17.02;;;10.50;;
30515;SDS011;17297;54.022;10.760;2023-03-21T06:11:05;17.77;;;11.60;;
30515;SDS011;17297;54.022;10.760;2023-03-21T06:13:41;15.27;;;10.43;;
30515;SDS011;17297;54.022;10.760;2023-03-21T06:16:07;16.00;;;10.93;;
30515;SDS011;17297;54.022;10.760;2023-03-21T06:18:34;18.58;;;11.27;;
30515;SDS011;17297;54.022;10.760;2023-03-21T06:21:13;17.08;;;11.48;;
30515;SDS011;17297;54.022;10.760;2023-03-21T06:23:39;17.40;;;11.30;;
30515;SDS011;17297;54.022;10.760;2023-03-21T06:26:05;17.13;;;10.75;;
30515;SDS011;17297;54.022;10.760;2023-03-21T06:28:32;17.88;;;10.88;;
30515;SDS011;17297;54.022;10.760;2023-03-21T06:30:57;19.77;;;12.48;;
30515;SDS011;17297;54.022;10.760;2023-03-21T06:33:24;18.63;;;12.25;;
30515;SDS011;17297;54.022;10.760;2023-03-21T06:35:51;18.50;;;12.18;;
30515;SDS011;17297;54.022;10.760;2023-03-21T06:38:21;17.45;;;10.70;;
30515;SDS011;17297;54.022;10.760;2023-03-21T06:40:47;20.15;;;12.30;;
30515;SDS011;17297;54.022;10.760;2023-03-21T06:43:13;17.70;;;11.57;;
30515;SDS011;17297;54.022;10.760;2023-03-21T06:45:43;19.15;;;11.88;;
30515;SDS011;17297;54.022;10.760;2023-03-21T06:48:10;17.23;;;10.65;;
30515;SDS011;17297;54.022;10.760;2023-03-21T06:50:43;16.55;;;10.50;;
30515;SDS011;17297;54.022;10.760;2023-03-21T06:53:09;18.88;;;10.80;;
30515;SDS011;17297;54.022;10.760;2023-03-21T06:55:55;16.20;;;10.68;;
30515;SDS011;17297;54.022;10.760;2023-03-21T06:58:21;17.70;;;11.85;;
30515;SDS011;17297;54.022;10.760;2023-03-21T07:00:47;16.85;;;10.68;;
30515;SDS011;17297;54.022;10.760;2023-03-21T07:03:12;16.88;;;10.80;;
30515;SDS011;17297;54.022;10.760;2023-03-21T07:05:38;17.38;;;11.77;;
30515;SDS011;17297;54.022;10.760;2023-03-21T07:08:05;18.10;;;10.80;;
30515;SDS011;17297;54.022;10.760;2023-03-21T07:10:37;17.65;;;11.50;;
30515;SDS011;17297;54.022;10.760;2023-03-21T07:13:05;18.00;;;12.13;;
30515;SDS011;17297;54.022;10.760;2023-03-21T07:15:43;18.75;;;11.48;;
30515;SDS011;17297;54.022;10.760;2023-03-21T07:18:08;18.60;;;10.80;;
30515;SDS011;17297;54.022;10.760;2023-03-21T07:20:35;18.73;;;11.55;;
30515;SDS011;17297;54.022;10.760;2023-03-21T07:23:02;16.52;;;11.30;;
30515;SDS011;17297;54.022;10.760;2023-03-21T07:25:28;21.08;;;12.43;;
30515;SDS011;17297;54.022;10.760;2023-03-21T07:27:54;18.83;;;10.60;;
30515;SDS011;17297;54.022;10.760;2023-03-21T07:30:19;17.73;;;10.60;;
30515;SDS011;17297;54.022;10.760;2023-03-21T07:32:45;17.83;;;11.77;;
30515;SDS011;17297;54.022;10.760;2023-03-21T07:35:13;18.15;;;10.15;;
30515;SDS011;17297;54.022;10.760;2023-03-21T07:37:41;16.45;;;10.32;;
30515;SDS011;17297;54.022;10.760;2023-03-21T07:40:07;16.35;;;10.55;;
30515;SDS011;17297;54.022;10.760;2023-03-21T07:42:38;17.17;;;10.73;;
30515;SDS011;17297;54.022;10.760;2023-03-21T07:45:04;15.82;;;9.98;;
30515;SDS011;17297;54.022;10.760;2023-03-21T07:47:32;17.67;;;10.77;;
30515;SDS011;17297;54.022;10.760;2023-03-21T07:49:58;13.35;;;9.75;;
30515;SDS011;17297;54.022;10.760;2023-03-21T07:52:24;14.20;;;10.07;;
30515;SDS011;17297;54.022;10.760;2023-03-21T07:54:49;17.10;;;11.63;;
30515;SDS011;17297;54.022;10.760;2023-03-21T07:57:14;14.60;;;9.23;;
30515;SDS011;17297;54.022;10.760;2023-03-21T07:59:41;16.25;;;10.02;;
30515;SDS011;17297;54.022;10.760;2023-03-21T08:02:08;14.23;;;9.13;;
30515;SDS011;17297;54.022;10.760;2023-03-21T08:04:37;13.48;;;8.55;;
30515;SDS011;17297;54.022;10.760;2023-03-21T08:07:02;10.90;;;7.72;;
30515;SDS011;17297;54.022;10.760;2023-03-21T08:09:28;12.65;;;8.30;;
30515;SDS011;17297;54.022;10.760;2023-03-21T08:11:53;13.50;;;9.07;;
30515;SDS011;17297;54.022;10.760;2023-03-21T08:14:18;11.52;;;8.32;;
30515;SDS011;17297;54.022;10.760;2023-03-21T08:16:44;12.43;;;8.10;;
30515;SDS011;17297;54.022;10.760;2023-03-21T08:19:09;11.13;;;7.72;;
30515;SDS011;17297;54.022;10.760;2023-03-21T08:21:35;11.27;;;7.50;;
30515;SDS011;17297;54.022;10.760;2023-03-21T08:24:01;10.00;;;7.22;;
30515;SDS011;17297;54.022;10.760;2023-03-21T08:26:27;10.57;;;7.25;;
30515;SDS011;17297;54.022;10.760;2023-03-21T08:28:52;14.10;;;9.70;;
30515;SDS011;17297;54.022;10.760;2023-03-21T08:31:17;12.00;;;7.97;;
30515;SDS011;17297;54.022;10.760;2023-03-21T08:33:45;10.48;;;7.25;;
30515;SDS011;17297;54.022;10.760;2023-03-21T08:36:11;10.13;;;7.30;;
30515;SDS011;17297;54.022;10.760;2023-03-21T08:38:36;11.52;;;8.05;;
30515;SDS011;17297;54.022;10.760;2023-03-21T08:41:02;12.18;;;8.77;;
30515;SDS011;17297;54.022;10.760;2023-03-21T08:43:27;11.95;;;8.20;;
30515;SDS011;17297;54.022;10.760;2023-03-21T08:45:54;10.93;;;8.93;;
30515;SDS011;17297;54.022;10.760;2023-03-21T08:48:20;11.63;;;7.40;;
30515;SDS011;17297;54.022;10.760;2023-03-21T08:50:46;9.63;;;6.57;;
30515;SDS011;17297;54.022;10.760;2023-03-21T08:53:11;8.10;;;6.15;;
30515;SDS011;17297;54.022;10.760;2023-03-21T08:55:37;10.15;;;7.43;;
30515;SDS011;17297;54.022;10.760;2023-03-21T08:58:02;13.13;;;8.68;;
30515;SDS011;17297;54.022;10.760;2023-03-21T09:00:28;10.95;;;7.70;;
30515;SDS011;17297;54.022;10.760;2023-03-21T09:02:54;14.57;;;9.73;;
30515;SDS011;17297;54.022;10.760;2023-03-21T09:05:21;11.40;;;8.20;;
30515;SDS011;17297;54.022;10.760;2023-03-21T09:07:47;12.48;;;9.30;;
30515;SDS011;17297;54.022;10.760;2023-03-21T09:10:15;12.02;;;9.02;;
30515;SDS011;17297;54.022;10.760;2023-03-21T09:12:42;11.52;;;8.98;;
30515;SDS011;17297;54.022;10.760;2023-03-21T09:15:08;13.80;;;8.30;;
30515;SDS011;17297;54.022;10.760;2023-03-21T09:17:34;12.63;;;8.80;;
30515;SDS011;17297;54.022;10.760;2023-03-21T09:20:00;13.15;;;9.82;;
30515;SDS011;17297;54.022;10.760;2023-03-21T09:22:32;11.90;;;9.52;;
30515;SDS011;17297;54.022;10.760;2023-03-21T09:24:57;12.15;;;8.80;;
30515;SDS011;17297;54.022;10.760;2023-03-21T09:27:23;13.23;;;9.18;;
30515;SDS011;17297;54.022;10.760;2023-03-21T09:29:52;12.40;;;8.73;;
30515;SDS011;17297;54.022;10.760;2023-03-21T09:32:17;11.48;;;9.15;;
30515;SDS011;17297;54.022;10.760;2023-03-21T09:34:43;13.20;;;9.93;;
30515;SDS011;17297;54.022;10.760;2023-03-21T09:37:09;13.52;;;9.63;;
30515;SDS011;17297;54.022;10.760;2023-03-21T09:39:35;16.08;;;9.93;;
30515;SDS011;17297;54.022;10.760;2023-03-21T09:42:03;15.27;;;10.43;;
30515;SDS011;17297;54.022;10.760;2023-03-21T09:44:43;12.65;;;9.93;;
30515;SDS011;17297;54.022;10.760;2023-03-21T09:49:48;13.65;;;10.00;;
30515;SDS011;17297;54.022;10.760;2023-03-21T09:54:58;13.95;;;10.50;;
30515;SDS011;17297;54.022;10.760;2023-03-21T09:57:32;14.75;;;10.13;;
30515;SDS011;17297;54.022;10.760;2023-03-21T10:00:03;14.30;;;10.57;;
30515;SDS011;17297;54.022;10.760;2023-03-21T10:02:41;14.73;;;10.18;;
30515;SDS011;17297;54.022;10.760;2023-03-21T10:05:15;12.50;;;10.25;;
30515;SDS011;17297;54.022;10.760;2023-03-21T10:07:45;15.00;;;10.18;;
30515;SDS011;17297;54.022;10.760;2023-03-21T10:12:46;10.15;;;8.13;;
30515;SDS011;17297;54.022;10.760;2023-03-21T10:15:15;13.05;;;9.60;;
30515;SDS011;17297;54.022;10.760;2023-03-21T10:17:43;17.00;;;10.88;;
30515;SDS011;17297;54.022;10.760;2023-03-21T10:20:37;15.13;;;9.88;;
30515;SDS011;17297;54.022;10.760;2023-03-21T10:23:06;13.93;;;9.93;;
30515;SDS011;17297;54.022;10.760;2023-03-21T10:25:39;12.55;;;9.07;;
30515;SDS011;17297;54.022;10.760;2023-03-21T10:28:07;12.48;;;9.23;;
30515;SDS011;17297;54.022;10.760;2023-03-21T10:30:39;15.23;;;10.68;;
30515;SDS011;17297;54.022;10.760;2023-03-21T10:33:10;15.07;;;9.60;;
30515;SDS011;17297;54.022;10.760;2023-03-21T10:35:38;15.45;;;10.35;;
30515;SDS011;17297;54.022;10.760;2023-03-21T10:38:09;13.77;;;9.45;;
30515;SDS011;17297;54.022;10.760;2023-03-21T10:40:41;13.63;;;9.65;;
30515;SDS011;17297;54.022;10.760;2023-03-21T10:45:50;13.32;;;9.50;;
30515;SDS011;17297;54.022;10.760;2023-03-21T10:48:17;12.50;;;9.32;;
30515;SDS011;17297;54.022;10.760;2023-03-21T10:50:43;17.15;;;10.80;;
30515;SDS011;17297;54.022;10.760;2023-03-21T10:53:19;14.25;;;9.68;;
30515;SDS011;17297;54.022;10.760;2023-03-21T10:55:48;12.55;;;8.70;;
30515;SDS011;17297;54.022;10.760;2023-03-21T10:58:19;12.70;;;8.77;;
30515;SDS011;17297;54.022;10.760;2023-03-21T11:00:55;13.38;;;9.65;;
30515;SDS011;17297;54.022;10.760;2023-03-21T11:03:26;12.35;;;9.45;;
30515;SDS011;17297;54.022;10.760;2023-03-21T11:06:40;14.10;;;9.57;;
30515;SDS011;17297;54.022;10.760;2023-03-21T11:08:55;13.27;;;9.55;;
30515;SDS011;17297;54.022;10.760;2023-03-21T11:11:26;12.65;;;9.90;;
30515;SDS011;17297;54.022;10.760;2023-03-21T11:13:58;13.73;;;9.07;;
30515;SDS011;17297;54.022;10.760;2023-03-21T11:16:29;14.32;;;9.93;;
30515;SDS011;17297;54.022;10.760;2023-03-21T11:19:00;10.52;;;8.23;;
30515;SDS011;17297;54.022;10.760;2023-03-21T11:21:33;11.18;;;8.55;;
30515;SDS011;17297;54.022;10.760;2023-03-21T11:24:00;12.25;;;9.10;;
30515;SDS011;17297;54.022;10.760;2023-03-21T11:26:31;10.98;;;8.10;;
30515;SDS011;17297;54.022;10.760;2023-03-21T11:29:06;10.07;;;7.22;;
30515;SDS011;17297;54.022;10.760;2023-03-21T11:31:41;10.38;;;8.07;;
30515;SDS011;17297;54.022;10.760;2023-03-21T11:34:07;9.98;;;7.65;;
30515;SDS011;17297;54.022;10.760;2023-03-21T11:36:34;11.35;;;8.45;;
30515;SDS011;17297;54.022;10.760;2023-03-21T11:41:35;12.10;;;7.80;;
30515;SDS011;17297;54.022;10.760;2023-03-21T11:44:04;9.02;;;6.53;;
30515;SDS011;17297;54.022;10.760;2023-03-21T11:46:30;9.50;;;7.05;;
30515;SDS011;17297;54.022;10.760;2023-03-21T11:48:57;8.52;;;7.25;;
30515;SDS011;17297;54.022;10.760;2023-03-21T11:51:33;9.85;;;6.82;;
30515;SDS011;17297;54.022;10.760;2023-03-21T11:54:06;8.85;;;7.07;;
30515;SDS011;17297;54.022;10.760;2023-03-21T11:56:43;9.02;;;6.45;;
30515;SDS011;17297;54.022;10.760;2023-03-21T12:05:11;7.35;;;5.22;;
30515;SDS011;17297;54.022;10.760;2023-03-21T12:07:53;6.95;;;5.75;;
30515;SDS011;17297;54.022;10.760;2023-03-21T12:10:38;7.65;;;5.55;;
30515;SDS011;17297;54.022;10.760;2023-03-21T12:16:38;7.68;;;6.35;;
30515;SDS011;17297;54.022;10.760;2023-03-21T12:24:54;6.47;;;5.18;;
30515;SDS011;17297;54.022;10.760;2023-03-21T12:30:47;7.22;;;5.55;;
30515;SDS011;17297;54.022;10.760;2023-03-21T12:36:17;5.80;;;4.97;;
30515;SDS011;17297;54.022;10.760;2023-03-21T12:44:34;6.53;;;5.88;;
30515;SDS011;17297;54.022;10.760;2023-03-21T12:47:08;6.57;;;5.50;;
30515;SDS011;17297;54.022;10.760;2023-03-21T12:52:31;6.47;;;4.60;;
30515;SDS011;17297;54.022;10.760;2023-03-21T12:55:12;6.35;;;4.80;;
30515;SDS011;17297;54.022;10.760;2023-03-21T13:00:22;6.03;;;5.03;;
30515;SDS011;17297;54.022;10.760;2023-03-21T13:02:57;6.60;;;5.25;;
30515;SDS011;17297;54.022;10.760;2023-03-21T13:05:36;6.07;;;4.97;;
30515;SDS011;17297;54.022;10.760;2023-03-21T13:08:12;7.10;;;5.80;;
30515;SDS011;17297;54.022;10.760;2023-03-21T13:10:42;7.47;;;5.57;;
30515;SDS011;17297;54.022;10.760;2023-03-21T13:13:45;7.05;;;5.32;;
30515;SDS011;17297;54.022;10.760;2023-03-21T13:24:01;7.10;;;5.40;;
30515;SDS011;17297;54.022;10.760;2023-03-21T13:27:03;7.22;;;5.32;;
30515;SDS011;17297;54.022;10.760;2023-03-21T13:29:52;5.65;;;4.80;;
30515;SDS011;17297;54.022;10.760;2023-03-21T13:32:24;8.63;;;5.70;;
30515;SDS011;17297;54.022;10.760;2023-03-21T13:34:55;7.07;;;5.40;;
30515;SDS011;17297;54.022;10.760;2023-03-21T13:37:24;8.82;;;6.50;;
30515;SDS011;17297;54.022;10.760;2023-03-21T13:39:53;7.10;;;5.38;;
30515;SDS011;17297;54.022;10.760;2023-03-21T13:42:29;7.13;;;5.68;;
30515;SDS011;17297;54.022;10.760;2023-03-21T13:45:00;7.45;;;5.47;;
30515;SDS011;17297;54.022;10.760;2023-03-21T13:50:22;7.00;;;5.50;;
30515;SDS011;17297;54.022;10.760;2023-03-21T13:55:35;8.80;;;5.68;;
30515;SDS011;17297;54.022;10.760;2023-03-21T14:01:33;7.80;;;6.05;;
30515;SDS011;17297;54.022;10.760;2023-03-21T14:06:46;8.30;;;5.93;;
30515;SDS011;17297;54.022;10.760;2023-03-21T14:09:23;8.07;;;5.82;;
30515;SDS011;17297;54.022;10.760;2023-03-21T14:14:20;7.45;;;5.25;;
30515;SDS011;17297;54.022;10.760;2023-03-21T14:16:47;7.13;;;5.50;;
30515;SDS011;17297;54.022;10.760;2023-03-21T14:19:16;8.98;;;6.30;;
30515;SDS011;17297;54.022;10.760;2023-03-21T14:21:48;7.50;;;6.20;;
30515;SDS011;17297;54.022;10.760;2023-03-21T14:24:17;6.78;;;6.10;;
30515;SDS011;17297;54.022;10.760;2023-03-21T14:26:45;9.60;;;6.90;;
30515;SDS011;17297;54.022;10.760;2023-03-21T14:29:18;10.15;;;6.93;;
30515;SDS011;17297;54.022;10.760;2023-03-21T14:31:47;12.20;;;7.40;;
30515;SDS011;17297;54.022;10.760;2023-03-21T14:34:13;9.27;;;6.80;;
30515;SDS011;17297;54.022;10.760;2023-03-21T14:36:41;10.07;;;6.35;;
30515;SDS011;17297;54.022;10.760;2023-03-21T14:39:20;11.23;;;7.13;;
30515;SDS011;17297;54.022;10.760;2023-03-21T14:46:59;10.55;;;7.15;;
30515;SDS011;17297;54.022;10.760;2023-03-21T14:49:26;10.68;;;7.70;;
30515;SDS011;17297;54.022;10.760;2023-03-21T14:51:55;9.88;;;6.80;;
30515;SDS011;17297;54.022;10.760;2023-03-21T14:54:22;8.75;;;6.32;;
30515;SDS011;17297;54.022;10.760;2023-03-21T14:56:52;9.27;;;6.53;;
30515;SDS011;17297;54.022;10.760;2023-03-21T14:59:22;8.60;;;6.70;;
30515;SDS011;17297;54.022;10.760;2023-03-21T15:01:50;8.57;;;6.55;;
30515;SDS011;17297;54.022;10.760;2023-03-21T15:04:18;9.05;;;6.43;;
30515;SDS011;17297;54.022;10.760;2023-03-21T15:06:55;7.57;;;5.63;;
30515;SDS011;17297;54.022;10.760;2023-03-21T15:09:23;6.45;;;5.63;;
30515;SDS011;17297;54.022;10.760;2023-03-21T15:11:51;6.88;;;5.80;;
30515;SDS011;17297;54.022;10.760;2023-03-21T15:14:19;8.55;;;6.30;;
30515;SDS011;17297;54.022;10.760;2023-03-21T15:16:50;6.88;;;5.38;;
30515;SDS011;17297;54.022;10.760;2023-03-21T15:19:17;8.32;;;5.35;;
30515;SDS011;17297;54.022;10.760;2023-03-21T15:21:49;6.60;;;5.60;;
30515;SDS011;17297;54.022;10.760;2023-03-21T15:24:20;7.43;;;5.53;;
30515;SDS011;17297;54.022;10.760;2023-03-21T15:27:01;9.02;;;6.28;;
30515;SDS011;17297;54.022;10.760;2023-03-21T15:29:29;7.75;;;5.70;;
30515;SDS011;17297;54.022;10.760;2023-03-21T15:31:56;6.13;;;5.28;;
30515;SDS011;17297;54.022;10.760;2023-03-21T15:34:25;7.05;;;5.60;;
30515;SDS011;17297;54.022;10.760;2023-03-21T15:37:35;6.97;;;5.47;;
30515;SDS011;17297;54.022;10.760;2023-03-21T15:39:45;7.15;;;5.15;;
30515;SDS011;17297;54.022;10.760;2023-03-21T15:42:23;8.15;;;5.75;;
30515;SDS011;17297;54.022;10.760;2023-03-21T15:44:54;6.43;;;5.18;;
30515;SDS011;17297;54.022;10.760;2023-03-21T15:50:17;9.93;;;4.97;;
30515;SDS011;17297;54.022;10.760;2023-03-21T15:52:49;6.97;;;5.22;;
30515;SDS011;17297;54.022;10.760;2023-03-21T15:56:02;6.50;;;4.78;;
30515;SDS011;17297;54.022;10.760;2023-03-21T16:00:40;5.80;;;4.85;;
30515;SDS011;17297;54.022;10.760;2023-03-21T16:03:19;5.93;;;4.55;;
30515;SDS011;17297;54.022;10.760;2023-03-21T16:08:34;9.23;;;4.82;;
30515;SDS011;17297;54.022;10.760;2023-03-21T16:11:05;5.80;;;5.00;;
30515;SDS011;17297;54.022;10.760;2023-03-21T16:13:31;7.43;;;5.28;;
30515;SDS011;17297;54.022;10.760;2023-03-21T16:15:57;7.00;;;5.60;;
30515;SDS011;17297;54.022;10.760;2023-03-21T16:18:22;5.75;;;5.05;;
30515;SDS011;17297;54.022;10.760;2023-03-21T16:20:47;7.03;;;5.10;;
30515;SDS011;17297;54.022;10.760;2023-03-21T16:23:14;5.55;;;4.53;;
30515;SDS011;17297;54.022;10.760;2023-03-21T16:25:40;7.55;;;5.53;;
30515;SDS011;17297;54.022;10.760;2023-03-21T16:28:12;6.65;;;5.10;;
30515;SDS011;17297;54.022;10.760;2023-03-21T16:30:39;6.07;;;4.95;;